Time;durP1;ratioP1;P1;durP2;ratioP2;P2;SDS_P1;SDS_P2;PMS_P1;PMS_P2;Temp;Humidity;BMP_temperature;BMP_pressure;BME280_temperature;BME280_humidity;BME280_pressure;Samples;Min_cycle;Max_cycle;Signal;HPM_P1;HPM_P2
2023/08/11 00:01:19;;;;;;;0.40;0.40;;;23.00;61.30;;;23.45;45.71;95507.19;5054244;28;20668;-39
2023/08/11 00:03:47;;;;;;;0.35;0.35;;;23.00;61.30;;;23.43;45.61;95509.31;5053886;28;20192;-39
2023/08/11 00:06:16;;;;;;;0.40;0.40;;;23.00;61.30;;;23.42;45.68;95505.81;5055047;28;20537;-39
2023/08/11 00:08:43;;;;;;;0.40;0.40;;;23.00;61.30;;;23.40;45.51;95502.59;5054783;28;20594;-39
2023/08/11 00:11:12;;;;;;;0.40;0.40;;;23.00;62.10;;;23.39;45.32;95506.34;5054956;28;20290;-39
2023/08/11 00:13:40;;;;;;;0.40;0.40;;;23.00;61.30;;;23.38;45.63;95509.28;5055278;28;20196;-39
2023/08/11 00:16:07;;;;;;;0.40;0.40;;;23.00;61.30;;;23.36;45.41;95514.06;5054615;28;20219;-39
2023/08/11 00:18:34;;;;;;;0.40;0.40;;;23.00;61.30;;;23.33;45.59;95516.19;5055184;28;20204;-39
2023/08/11 00:21:02;;;;;;;0.40;0.40;;;23.00;61.30;;;23.31;45.44;95513.00;5053849;28;20195;-39
2023/08/11 00:23:30;;;;;;;0.40;0.40;;;22.90;61.10;;;23.28;45.42;95515.38;5054976;28;20657;-39
2023/08/11 00:25:57;;;;;;;0.40;0.40;;;22.90;61.00;;;23.26;45.27;95514.81;5070195;28;20581;-39
2023/08/11 00:28:26;;;;;;;0.40;0.40;;;22.90;60.90;;;23.24;45.23;95516.94;5054922;28;20519;-39
2023/08/11 00:30:54;;;;;;;0.40;0.40;;;22.80;60.70;;;23.22;45.03;95513.69;5053675;28;20198;-39
2023/08/11 00:33:22;;;;;;;0.40;0.40;;;22.80;60.90;;;23.17;44.94;95517.97;5053707;28;20208;-39
2023/08/11 00:35:49;;;;;;;0.40;0.40;;;22.80;60.80;;;23.15;44.88;95512.03;5053434;28;20230;-39
2023/08/11 00:38:16;;;;;;;0.43;0.43;;;22.80;60.80;;;23.12;44.85;95517.91;5054552;28;20198;-39
2023/08/11 00:40:44;;;;;;;0.45;0.45;;;22.70;60.70;;;23.09;45.12;95513.06;5054206;28;20201;-39
2023/08/11 00:43:11;;;;;;;0.40;0.40;;;22.70;61.50;;;23.06;44.69;95507.41;5054492;28;20229;-39
2023/08/11 00:45:45;;;;;;;0.50;0.50;;;22.70;60.60;;;23.03;44.85;95514.91;5053383;28;20224;-39
2023/08/11 00:48:12;;;;;;;0.50;0.50;;;22.60;60.50;;;23.00;44.71;95515.41;5053522;28;20198;-39
2023/08/11 00:50:41;;;;;;;0.40;0.40;;;22.60;60.50;;;22.96;44.67;95508.13;5053479;28;20222;-39
2023/08/11 00:53:08;;;;;;;0.40;0.40;;;22.60;60.50;;;22.94;44.86;95510.28;5054426;28;20317;-39
2023/08/11 00:55:35;;;;;;;0.40;0.40;;;22.60;60.70;;;22.92;44.99;95509.72;5054208;28;20203;-39
2023/08/11 00:58:04;;;;;;;0.40;0.40;;;22.50;60.70;;;22.90;44.88;95511.84;5053300;28;20604;-39
2023/08/11 01:00:32;;;;;;;0.40;0.40;;;22.50;60.60;;;22.89;44.91;95507.53;5053488;28;20198;-39
2023/08/11 01:02:59;;;;;;;0.40;0.40;;;22.50;60.80;;;22.86;44.96;95515.03;5053996;28;20204;-39
2023/08/11 01:05:34;;;;;;;0.40;0.40;;;22.50;60.70;;;22.83;44.98;95510.19;5053381;28;20190;-39
2023/08/11 01:08:32;;;;;;;0.40;0.40;;;22.40;61.70;;;22.78;44.93;95510.16;5053456;28;20181;-39
2023/08/11 01:11:28;;;;;;;0.50;0.50;;;22.40;60.70;;;22.76;45.12;95509.59;5053371;28;20217;-39
2023/08/11 01:14:04;;;;;;;0.40;0.40;;;22.40;60.70;;;22.74;45.08;95511.72;5056359;28;20523;-39
2023/08/11 01:16:34;;;;;;;0.40;0.40;;;22.40;60.60;;;22.71;45.14;95506.88;5057253;28;20225;-39
2023/08/11 01:19:05;;;;;;;0.40;0.40;;;22.40;60.60;;;22.69;45.02;95511.66;5057937;28;20204;-38
2023/08/11 01:21:39;;;;;;;0.40;0.40;;;22.30;60.60;;;22.68;45.02;95512.75;5056948;28;20522;-37
2023/08/11 01:24:07;;;;;;;0.43;0.43;;;22.30;60.70;;;22.64;44.93;95511.63;5056855;28;20251;-37
2023/08/11 01:26:34;;;;;;;0.40;0.40;;;22.30;60.80;;;22.63;45.30;95512.66;5057832;28;20255;-37
2023/08/11 01:29:02;;;;;;;0.40;0.40;;;22.30;60.80;;;22.61;45.13;95507.59;5056625;28;20614;-37
2023/08/11 01:31:29;;;;;;;0.40;0.40;;;22.20;60.80;;;22.61;45.34;95506.78;5057783;28;20197;-37
2023/08/11 01:33:56;;;;;;;0.40;0.40;;;22.20;60.70;;;22.59;45.22;95512.38;5057513;28;20699;-37
2023/08/11 01:36:23;;;;;;;0.40;0.40;;;22.20;60.70;;;22.57;45.00;95503.81;5057217;28;20589;-37
2023/08/11 01:38:50;;;;;;;0.40;0.40;;;22.20;60.80;;;22.57;45.04;95505.66;5057713;28;20285;-37
2023/08/11 01:41:18;;;;;;;0.40;0.40;;;22.20;60.80;;;22.54;45.05;95507.81;5057671;28;20192;-37
2023/08/11 01:43:47;;;;;;;0.40;0.40;;;22.20;60.80;;;22.54;45.21;95502.47;5057314;28;20256;-37
2023/08/11 01:46:14;;;;;;;0.40;0.40;;;22.20;60.80;;;22.53;45.31;95508.88;5039724;28;20204;-37
2023/08/11 01:48:42;;;;;;;0.45;0.45;;;22.10;60.70;;;22.52;45.05;95506.41;5056375;28;20541;-37
2023/08/11 01:51:10;;;;;;;0.47;0.47;;;22.10;60.60;;;22.52;45.09;95495.72;5056377;28;20213;-37
2023/08/11 01:53:37;;;;;;;0.40;0.40;;;22.10;60.70;;;22.49;45.07;95498.94;5056978;28;20237;-37
2023/08/11 01:56:05;;;;;;;0.40;0.40;;;22.10;60.70;;;22.50;44.96;95495.19;5039699;28;20283;-37
2023/08/11 01:58:33;;;;;;;0.50;0.50;;;22.10;60.70;;;22.49;45.21;95509.63;5039573;28;20235;-37
2023/08/11 02:01:00;;;;;;;0.40;0.40;;;22.10;60.60;;;22.47;45.11;95493.00;5056061;28;20216;-37
2023/08/11 02:03:27;;;;;;;0.40;0.40;;;22.10;60.60;;;22.47;45.16;95506.38;5057250;28;20216;-37
2023/08/11 02:05:55;;;;;;;0.40;0.40;;;22.10;60.70;;;22.43;45.28;95495.38;5056793;28;20596;-37
2023/08/11 02:08:22;;;;;;;0.40;0.40;;;22.10;60.60;;;22.42;45.16;95493.75;5056039;28;20210;-37
2023/08/11 02:10:49;;;;;;;0.43;0.43;;;22.00;60.60;;;22.42;44.86;95504.47;5057088;28;20573;-37
2023/08/11 02:13:16;;;;;;;0.40;0.40;;;22.00;60.60;;;22.41;45.27;95504.72;5072751;28;20191;-37
2023/08/11 02:15:44;;;;;;;0.40;0.40;;;22.00;60.60;;;22.40;45.05;95509.28;5056586;28;20220;-37
2023/08/11 02:18:11;;;;;;;0.40;0.40;;;22.00;60.60;;;22.38;45.08;95509.50;5056517;28;20233;-37
2023/08/11 02:20:38;;;;;;;0.40;0.40;;;22.00;60.50;;;22.37;45.11;95510.56;5039305;28;20649;-37
2023/08/11 02:23:05;;;;;;;0.40;0.40;;;22.00;60.60;;;22.36;45.17;95510.78;5057612;28;20208;-36
2023/08/11 02:25:33;;;;;;;0.38;0.38;;;22.00;60.60;;;22.35;45.18;95503.81;5055504;28;20227;-36
2023/08/11 02:28:01;;;;;;;0.40;0.40;;;22.00;60.70;;;22.34;45.17;95505.69;5056598;28;20564;-36
2023/08/11 02:30:29;;;;;;;0.40;0.40;;;22.00;60.60;;;22.35;45.28;95512.66;5057463;28;20187;-36
2023/08/11 02:32:59;;;;;;;0.50;0.50;;;22.00;60.70;;;22.34;45.24;95507.56;5057290;28;20185;-36
2023/08/11 02:35:26;;;;;;;0.40;0.40;;;22.00;60.70;;;22.31;45.19;95508.06;5055917;28;20269;-36
2023/08/11 02:37:53;;;;;;;0.40;0.40;;;22.00;60.70;;;22.31;45.01;95508.06;5056063;28;20229;-36
2023/08/11 02:40:20;;;;;;;0.40;0.40;;;22.00;60.60;;;22.29;45.09;95504.81;5056960;28;20279;-36
2023/08/11 02:42:56;;;;;;;0.40;0.40;;;21.90;60.50;;;22.26;44.86;95511.47;5056264;28;20674;-36
2023/08/11 02:45:25;;;;;;;0.40;0.40;;;21.90;60.50;;;22.23;45.05;95509.31;5057015;28;20195;-36
2023/08/11 02:47:54;;;;;;;0.40;0.40;;;21.90;60.60;;;22.21;45.13;95514.91;5055827;28;20632;-36
2023/08/11 02:50:22;;;;;;;0.50;0.50;;;21.90;60.60;;;22.19;45.05;95513.53;5057207;28;20230;-36
2023/08/11 02:52:49;;;;;;;0.40;0.40;;;21.90;60.60;;;22.17;44.78;95510.34;5056915;28;20244;-36
2023/08/11 02:55:16;;;;;;;0.40;0.40;;;21.90;60.60;;;22.12;45.31;95504.91;5056585;28;20228;-36
2023/08/11 02:57:43;;;;;;;0.40;0.40;;;21.90;60.60;;;22.13;45.18;95510.03;5055688;28;20223;-36
2023/08/11 03:00:14;;;;;;;0.40;0.40;;;21.80;60.60;;;22.12;45.07;95519.09;5055720;28;20201;-36
2023/08/11 03:02:46;;;;;;;0.50;0.50;;;21.80;60.70;;;22.12;45.03;95512.91;5055756;28;20220;-36
2023/08/11 03:05:16;;;;;;;0.40;0.40;;;21.80;60.70;;;22.08;44.92;95504.59;5039323;28;20280;-36
2023/08/11 03:07:45;;;;;;;0.40;0.40;;;21.80;60.60;;;22.07;45.11;95516.38;5056151;28;20293;-36
2023/08/11 03:10:12;;;;;;;0.50;0.50;;;21.70;60.60;;;22.06;45.17;95514.75;5055523;28;20217;-36
2023/08/11 03:12:42;;;;;;;0.40;0.40;;;21.70;60.60;;;22.03;45.10;95510.72;5056599;28;20219;-36
2023/08/11 03:15:09;;;;;;;0.45;0.45;;;21.70;60.70;;;22.00;45.59;95510.41;5056553;28;20545;-36
2023/08/11 03:17:38;;;;;;;0.50;0.50;;;21.70;60.70;;;21.99;45.14;95520.28;5055331;28;20223;-36
2023/08/11 03:20:13;;;;;;;0.40;0.40;;;21.70;60.60;;;21.97;45.44;95517.06;5055945;28;20216;-36
2023/08/11 03:22:45;;;;;;;0.50;0.50;;;21.70;60.60;;;21.96;45.26;95515.44;5055464;28;20200;-36
2023/08/11 03:25:15;;;;;;;0.50;0.50;;;21.70;60.70;;;21.95;45.35;95518.34;5056454;28;20192;-36
2023/08/11 03:27:43;;;;;;;0.40;0.40;;;21.60;60.70;;;21.95;45.37;95515.66;5055561;28;20209;-36
2023/08/11 03:30:20;;;;;;;0.45;0.45;;;21.60;60.70;;;21.94;45.49;95525.56;5056460;28;20270;-36
2023/08/11 03:32:51;;;;;;;0.50;0.50;;;21.60;60.70;;;21.93;45.14;95521.25;5055044;28;20225;-36
2023/08/11 03:35:20;;;;;;;0.40;0.40;;;21.60;60.70;;;21.93;45.38;95523.13;5055052;28;20207;-36
2023/08/11 03:37:49;;;;;;;0.50;0.50;;;21.60;60.80;;;21.92;45.48;95524.97;5054835;28;20215;-36
2023/08/11 03:40:16;;;;;;;0.50;0.50;;;21.60;60.70;;;21.91;45.08;95529.53;5055105;28;20210;-36
2023/08/11 03:42:51;;;;;;;0.40;0.40;;;21.60;60.70;;;21.91;45.40;95528.75;5054984;28;20195;-36
2023/08/11 03:45:19;;;;;;;0.40;0.40;;;21.60;60.80;;;21.89;45.34;95531.63;5071532;28;20600;-36
2023/08/11 03:47:47;;;;;;;0.50;0.50;;;21.60;60.90;;;21.89;45.50;95538.84;5054937;28;20652;-36
2023/08/11 03:50:19;;;;;;;0.50;0.50;;;21.50;60.70;;;21.89;45.18;95538.84;5055688;28;20196;-36
2023/08/11 03:52:47;;;;;;;0.40;0.40;;;21.50;60.90;;;21.87;45.13;95532.94;5054578;28;20234;-36
2023/08/11 03:55:14;;;;;;;0.50;0.50;;;21.50;60.70;;;21.85;45.36;95540.38;5055763;28;20237;-36
2023/08/11 03:57:41;;;;;;;0.50;0.50;;;21.50;60.70;;;21.82;45.66;95541.69;5038294;28;20286;-36
2023/08/11 04:00:15;;;;;;;0.40;0.40;;;21.50;60.70;;;21.79;45.14;95536.84;5038845;28;20219;-36
2023/08/11 04:02:49;;;;;;;0.43;0.43;;;21.50;60.70;;;21.75;45.52;95539.22;5054619;28;20666;-36
2023/08/11 04:05:18;;;;;;;0.60;0.60;;;21.40;60.70;;;21.73;45.42;95546.66;5054711;28;20261;-36
2023/08/11 04:07:46;;;;;;;0.40;0.40;;;21.50;60.70;;;21.71;45.44;95546.09;5055208;28;20199;-36
2023/08/11 04:10:15;;;;;;;0.52;0.52;;;21.40;60.80;;;21.69;45.70;95550.88;5054672;28;20257;-36
2023/08/11 04:12:42;;;;;;;0.50;0.50;;;21.40;60.80;;;21.68;45.62;95554.59;5054369;28;20202;-36
2023/08/11 04:15:10;;;;;;;0.50;0.50;;;21.40;61.00;;;21.69;45.60;95560.75;5055077;28;20210;-36
2023/08/11 04:17:37;;;;;;;0.45;0.45;;;21.40;61.00;;;21.67;45.83;95558.31;5054238;28;20659;-36
2023/08/11 04:20:12;;;;;;;0.47;0.47;;;21.40;61.00;;;21.68;45.91;95556.44;5071444;28;20210;-36
2023/08/11 04:22:41;;;;;;;0.50;0.50;;;21.40;61.10;;;21.68;45.86;95559.13;5055689;28;20187;-36
2023/08/11 04:25:11;;;;;;;0.40;0.40;;;21.30;61.00;;;21.67;45.64;95561.00;5054534;28;20206;-36
2023/08/11 04:27:43;;;;;;;0.40;0.40;;;21.30;61.10;;;21.67;45.82;95566.34;5054460;28;20256;-36
2023/08/11 04:30:12;;;;;;;0.40;0.40;;;21.40;61.10;;;21.68;45.89;95559.13;5054269;28;20214;-36
2023/08/11 04:32:43;;;;;;;0.50;0.50;;;21.40;61.30;;;21.65;46.09;95563.09;5055037;28;20282;-36
2023/08/11 04:35:10;;;;;;;0.47;0.47;;;21.30;61.20;;;21.67;46.18;95552.19;5054477;28;20254;-36
2023/08/11 04:37:41;;;;;;;0.40;0.40;;;21.30;61.20;;;21.65;46.20;95555.09;5055071;28;20199;-36
2023/08/11 04:40:10;;;;;;;0.47;0.47;;;21.30;61.10;;;21.68;45.84;95556.44;5054195;28;20286;-36
2023/08/11 04:42:40;;;;;;;0.50;0.50;;;21.30;61.20;;;21.68;46.10;95559.13;5054313;28;20198;-36
2023/08/11 04:45:11;;;;;;;0.50;0.50;;;21.30;61.30;;;21.69;45.83;95566.06;5054320;28;20196;-36
2023/08/11 04:47:40;;;;;;;0.40;0.40;;;21.40;61.40;;;21.70;46.39;95568.53;5054924;28;20199;-36
2023/08/11 04:50:11;;;;;;;0.50;0.50;;;21.30;61.50;;;21.71;46.29;95564.78;5058387;28;20568;-36
2023/08/11 04:52:39;;;;;;;0.50;0.50;;;21.40;61.50;;;21.72;46.47;95563.72;5057772;28;20633;-36
2023/08/11 04:55:07;;;;;;;0.40;0.40;;;21.40;61.50;;;21.73;46.17;95568.00;5058424;28;20289;-36
2023/08/11 04:57:35;;;;;;;0.50;0.50;;;21.40;61.50;;;21.69;46.16;95560.75;5041236;28;20219;-36
2023/08/11 05:00:13;;;;;;;0.50;0.50;;;21.40;61.50;;;21.77;46.12;95567.53;5041734;28;20259;-36
2023/08/11 05:02:44;;;;;;;0.47;0.47;;;21.40;61.50;;;21.77;46.40;95570.22;5058964;28;20592;-36
2023/08/11 05:05:12;;;;;;;0.40;0.40;;;21.40;61.50;;;21.79;46.41;95573.41;5058985;28;20183;-36
2023/08/11 05:07:39;;;;;;;0.50;0.50;;;21.40;61.50;;;21.80;46.52;95583.06;5058568;28;20219;-36
2023/08/11 05:10:07;;;;;;;0.40;0.40;;;21.50;61.60;;;21.81;46.58;95579.31;5058802;28;20193;-36
2023/08/11 05:12:35;;;;;;;0.40;0.40;;;21.50;61.60;;;21.82;46.52;95583.63;5057902;28;20599;-36
2023/08/11 05:15:03;;;;;;;0.50;0.50;;;21.50;61.70;;;21.80;46.64;95585.72;5058059;28;20258;-36
2023/08/11 05:17:31;;;;;;;0.50;0.50;;;21.50;61.60;;;21.84;46.65;95586.88;5059021;28;20224;-36
2023/08/11 05:19:58;;;;;;;0.40;0.40;;;21.50;61.70;;;21.86;46.55;95590.06;5058811;28;20630;-36
2023/08/11 05:22:26;;;;;;;0.40;0.40;;;21.60;61.80;;;21.87;46.45;95589.03;5058377;28;20194;-36
2023/08/11 05:24:53;;;;;;;0.47;0.47;;;21.60;61.80;;;21.89;46.78;95593.06;5058293;28;20279;-36
2023/08/11 05:27:20;;;;;;;0.50;0.50;;;21.60;61.80;;;21.90;46.74;95594.69;5058169;28;20192;-36
2023/08/11 05:29:48;;;;;;;0.40;0.40;;;21.60;61.80;;;21.91;46.85;95593.63;5058227;28;20255;-36
2023/08/11 05:32:15;;;;;;;0.40;0.40;;;21.60;61.70;;;21.93;46.56;95593.38;5058339;28;20226;-36
2023/08/11 05:34:42;;;;;;;0.40;0.40;;;21.70;61.80;;;21.93;46.64;95596.03;5058034;28;20192;-36
2023/08/11 05:37:10;;;;;;;0.30;0.30;;;21.70;61.80;;;21.96;46.55;95592.91;5057967;28;20240;-36
2023/08/11 05:39:38;;;;;;;0.47;0.47;;;21.70;61.80;;;21.96;47.01;95600.91;5058031;28;20279;-36
2023/08/11 05:42:07;;;;;;;0.35;0.35;;;21.70;61.70;;;21.98;46.81;95604.13;5057899;28;20692;-36
2023/08/11 05:44:34;;;;;;;0.35;0.35;;;21.70;61.70;;;22.00;46.62;95596.69;5057795;28;20198;-36
2023/08/11 05:47:02;;;;;;;0.40;0.40;;;21.80;61.80;;;22.01;46.67;95600.19;5057493;28;20254;-36
2023/08/11 05:49:29;;;;;;;0.40;0.40;;;21.80;61.80;;;22.03;46.92;95606.88;5057613;28;20238;-36
2023/08/11 05:51:56;;;;;;;0.40;0.40;;;21.80;61.70;;;22.04;46.62;95608.47;5057491;28;20294;-36
2023/08/11 05:54:23;;;;;;;0.40;0.40;;;21.80;61.70;;;22.05;46.84;95603.97;5057879;28;20247;-36
2023/08/11 05:56:52;;;;;;;0.40;0.40;;;21.80;61.70;;;22.06;46.60;95614.38;5057654;28;20226;-36
2023/08/11 05:59:23;;;;;;;0.40;0.40;;;21.80;61.60;;;22.06;46.73;95611.72;5056977;28;20231;-36
2023/08/11 06:01:50;;;;;;;0.40;0.40;;;21.80;60.80;;;22.07;46.45;95609.88;5073545;28;20191;-36
2023/08/11 06:04:18;;;;;;;0.40;0.40;;;21.80;61.50;;;22.08;46.64;95608.78;5073434;28;20534;-36
2023/08/11 06:06:45;;;;;;;0.40;0.40;;;21.90;61.50;;;22.08;46.67;95608.78;5057141;28;20243;-36
2023/08/11 06:09:12;;;;;;;0.40;0.40;;;21.90;61.50;;;22.09;46.52;95621.09;5057711;28;20248;-36
2023/08/11 06:11:39;;;;;;;0.40;0.40;;;21.90;61.50;;;22.11;46.74;95620.88;5057353;28;20232;-36
2023/08/11 06:14:06;;;;;;;0.40;0.40;;;21.90;62.40;;;22.11;46.76;95615.53;5056313;28;20238;-36
2023/08/11 06:16:33;;;;;;;0.40;0.40;;;21.90;61.50;;;22.11;46.53;95610.19;5072434;28;20708;-37
2023/08/11 06:19:00;;;;;;;0.40;0.40;;;21.90;61.40;;;22.11;46.66;95610.97;5056589;28;20278;-37
2023/08/11 06:21:28;;;;;;;0.40;0.40;;;21.90;61.40;;;22.12;46.47;95612.59;5056576;28;20199;-37
2023/08/11 06:23:55;;;;;;;0.43;0.43;;;21.90;61.40;;;22.11;46.20;95613.66;5056635;28;20195;-37
2023/08/11 06:26:22;;;;;;;0.40;0.40;;;21.90;61.40;;;22.12;46.53;95620.63;5056356;28;20644;-37
2023/08/11 06:28:50;;;;;;;0.43;0.43;;;22.00;61.40;;;22.11;46.27;95619.00;5056751;28;20216;-37
2023/08/11 06:31:20;;;;;;;0.40;0.40;;;21.90;61.30;;;22.11;46.51;95624.34;5056447;28;20202;-37
2023/08/11 06:33:47;;;;;;;0.40;0.40;;;21.90;61.30;;;22.12;46.29;95620.63;5056697;28;20644;-37
2023/08/11 06:36:14;;;;;;;0.40;0.40;;;21.90;61.30;;;22.13;46.37;95629.44;5055633;28;20283;-37
2023/08/11 06:38:42;;;;;;;0.40;0.40;;;21.90;61.30;;;22.14;46.27;95631.88;5056198;28;20535;-37
2023/08/11 06:41:10;;;;;;;0.40;0.40;;;21.90;61.40;;;22.13;46.29;95630.25;5056517;28;20196;-37
2023/08/11 06:43:38;;;;;;;0.40;0.40;;;21.90;61.30;;;22.14;46.40;95631.88;5056248;28;20204;-37
2023/08/11 06:46:06;;;;;;;0.40;0.40;;;22.00;61.40;;;22.16;46.43;95634.28;5056203;28;20216;-37
2023/08/11 06:48:35;;;;;;;0.40;0.40;;;21.90;61.30;;;22.16;46.14;95635.09;5056012;28;20201;-37
2023/08/11 06:51:03;;;;;;;0.40;0.40;;;21.90;61.30;;;22.18;46.32;95634.81;5056102;28;20573;-37
2023/08/11 06:53:30;;;;;;;0.47;0.47;;;22.00;61.40;;;22.19;46.44;95642.63;5055049;28;20237;-37
2023/08/11 06:55:57;;;;;;;0.30;0.30;;;22.00;61.40;;;22.19;46.48;95637.28;5056229;28;20361;-37
2023/08/11 06:58:24;;;;;;;0.40;0.40;;;22.00;61.40;;;22.22;46.16;95641.31;5055741;28;20438;-37
2023/08/11 07:00:52;;;;;;;0.40;0.40;;;22.00;61.40;;;22.25;46.09;95637.34;5055906;28;20205;-39
2023/08/11 07:03:19;;;;;;;0.40;0.40;;;22.00;61.40;;;22.25;46.53;95648.81;5055815;28;20590;-39
2023/08/11 07:05:51;;;;;;;0.50;0.50;;;22.00;61.40;;;22.28;46.45;95642.19;5055821;28;20711;-39
2023/08/11 07:08:19;;;;;;;0.50;0.50;;;22.00;61.40;;;22.28;46.04;95647.53;5055557;28;20546;-39
2023/08/11 07:10:47;;;;;;;0.40;0.40;;;22.00;61.40;;;22.30;46.10;95648.91;5055449;28;20217;-39
2023/08/11 07:13:14;;;;;;;0.40;0.40;;;22.00;61.40;;;22.31;46.44;95645.16;5056192;28;20199;-39
2023/08/11 07:15:42;;;;;;;0.32;0.32;;;22.10;61.40;;;22.35;46.27;95650.81;5054649;28;20207;-39
2023/08/11 07:18:10;;;;;;;0.40;0.40;;;22.10;61.40;;;22.35;46.54;95643.63;5054569;28;20209;-39
2023/08/11 07:20:44;;;;;;;0.45;0.45;;;22.10;61.50;;;22.36;46.46;95642.56;5055733;28;20226;-39
2023/08/11 07:23:11;;;;;;;0.40;0.40;;;22.10;61.50;;;22.38;46.33;95645.81;5055776;28;20672;-39
2023/08/11 07:25:39;;;;;;;0.30;0.30;;;22.10;61.40;;;22.39;46.00;95647.44;5055451;28;20191;-39
2023/08/11 07:28:06;;;;;;;0.40;0.40;;;22.10;61.30;;;22.42;46.08;95638.09;5055275;28;20195;-39
2023/08/11 07:30:33;;;;;;;0.40;0.40;;;22.10;61.30;;;22.43;46.14;95642.41;5055919;28;20656;-39
2023/08/11 07:33:01;;;;;;;0.40;0.40;;;22.20;61.40;;;22.41;46.09;95639.19;5055601;28;20537;-39
2023/08/11 07:35:29;;;;;;;0.40;0.40;;;22.20;61.40;;;22.46;46.16;95646.44;5055833;28;20206;-39
2023/08/11 07:37:56;;;;;;;0.40;0.40;;;22.20;61.40;;;22.46;46.23;95644.59;5055129;28;20260;-39
2023/08/11 07:40:23;;;;;;;0.40;0.40;;;22.20;61.30;;;22.46;46.01;95639.25;5055128;28;20640;-39
2023/08/11 07:42:51;;;;;;;0.40;0.40;;;22.20;61.30;;;22.50;46.01;95642.22;5055142;28;20208;-39
2023/08/11 07:45:18;;;;;;;0.40;0.40;;;22.20;61.20;;;22.50;46.29;95653.72;5055107;28;20260;-39
2023/08/11 07:47:46;;;;;;;0.47;0.47;;;22.20;61.10;;;22.52;45.95;95650.78;5054305;28;20236;-39
2023/08/11 07:50:14;;;;;;;0.40;0.40;;;22.20;61.20;;;22.53;46.08;95650.56;5054941;28;20207;-39
2023/08/11 07:52:41;;;;;;;0.40;0.40;;;22.20;61.10;;;22.56;45.79;95651.91;5055152;28;20371;-39
2023/08/11 07:55:08;;;;;;;0.40;0.40;;;22.30;61.20;;;22.58;45.59;95657.00;5054988;28;20213;-39
2023/08/11 07:57:36;;;;;;;0.30;0.30;;;22.30;61.20;;;22.59;45.89;95650.59;5055012;28;20203;-39
2023/08/11 08:00:05;;;;;;;0.40;0.40;;;22.30;61.20;;;22.60;46.20;95646.88;5055147;28;20214;-39
2023/08/11 08:02:38;;;;;;;0.40;0.40;;;22.30;61.30;;;22.60;46.03;95646.88;5054904;28;20193;-39
2023/08/11 08:05:06;;;;;;;0.40;0.40;;;22.30;61.20;;;22.62;45.91;95645.56;5054877;28;20199;-39
2023/08/11 08:07:39;;;;;;;0.30;0.30;;;22.30;61.00;;;22.63;45.70;95643.69;5055031;28;20532;-39
2023/08/11 08:10:11;;;;;;;0.40;0.40;;;22.40;61.20;;;22.65;45.90;95646.94;5054854;28;20201;-39
2023/08/11 08:12:39;;;;;;;0.40;0.40;;;22.40;61.10;;;22.64;45.69;95651.47;5055090;28;20595;-39
2023/08/11 08:15:09;;;;;;;0.40;0.40;;;22.40;61.00;;;22.67;45.52;95647.50;5054770;28;20187;-39
2023/08/11 08:17:37;;;;;;;0.45;0.45;;;22.40;61.00;;;22.68;45.50;95646.44;5054652;28;20211;-39
2023/08/11 08:20:09;;;;;;;0.40;0.40;;;22.40;60.90;;;22.70;45.56;95647.81;5054944;28;20212;-39
2023/08/11 08:22:37;;;;;;;0.32;0.32;;;22.40;60.90;;;22.71;45.54;95644.03;5055793;28;20179;-39
2023/08/11 08:25:06;;;;;;;0.30;0.30;;;22.40;61.00;;;22.74;45.98;95649.97;5059512;28;20514;-39
2023/08/11 08:27:35;;;;;;;0.50;0.50;;;22.40;61.00;;;22.75;45.66;95643.56;5058825;28;20257;-39
2023/08/11 08:30:05;;;;;;;0.40;0.40;;;22.40;60.90;;;22.77;45.57;95644.13;5058745;28;20209;-39
2023/08/11 08:32:33;;;;;;;0.40;0.40;;;22.40;60.90;;;22.78;45.69;95648.41;5058912;28;20662;-39
2023/08/11 08:35:00;;;;;;;0.40;0.40;;;22.50;61.10;;;22.78;45.79;95648.41;5058920;28;20203;-39
2023/08/11 08:37:28;;;;;;;0.40;0.40;;;22.50;60.90;;;22.80;45.38;95639.09;5058469;28;20689;-39
2023/08/11 08:39:55;;;;;;;0.40;0.40;;;22.50;60.90;;;22.82;45.64;95644.19;5058785;28;20272;-39
2023/08/11 08:42:25;;;;;;;0.40;0.40;;;22.50;61.00;;;22.83;45.48;95641.25;5058811;28;20570;-39
2023/08/11 08:44:54;;;;;;;0.40;0.40;;;22.50;60.90;;;22.84;45.48;95640.19;5058823;28;20190;-39
2023/08/11 08:47:22;;;;;;;0.40;0.40;;;22.50;60.90;;;22.86;45.43;95640.75;5058537;28;20199;-39
2023/08/11 08:49:50;;;;;;;0.35;0.35;;;22.60;60.90;;;22.88;45.44;95635.13;5058378;28;20203;-39
2023/08/11 08:52:18;;;;;;;0.40;0.40;;;22.60;61.80;;;22.90;45.54;95645.59;5058189;28;20246;-39
2023/08/11 08:54:47;;;;;;;0.40;0.40;;;22.50;60.80;;;22.91;45.39;95639.19;5058310;28;20195;-39
2023/08/11 08:57:15;;;;;;;0.40;0.40;;;22.60;60.70;;;22.91;45.42;95633.81;5040730;28;20643;-39
2023/08/11 08:59:43;;;;;;;0.50;0.50;;;22.60;60.80;;;22.92;45.55;95638.13;5058135;28;20219;-39
2023/08/11 09:02:12;;;;;;;0.40;0.40;;;22.60;60.80;;;22.93;45.54;95637.06;5058148;28;20225;-39
2023/08/11 09:04:40;;;;;;;0.40;0.40;;;22.60;60.70;;;22.97;45.32;95638.16;5057266;28;20203;-39
2023/08/11 09:07:08;;;;;;;0.30;0.30;;;22.60;60.70;;;22.94;45.30;95627.97;5058011;28;20219;-39
2023/08/11 09:09:35;;;;;;;0.40;0.40;;;22.60;60.60;;;22.99;45.22;95638.72;5057451;28;20199;-39
2023/08/11 09:12:03;;;;;;;0.40;0.40;;;22.60;60.70;;;23.01;45.04;95634.72;5058247;28;20206;-39
2023/08/11 09:14:30;;;;;;;0.40;0.40;;;22.70;60.80;;;23.02;44.91;95633.69;5057943;28;20698;-39
2023/08/11 09:17:00;;;;;;;0.38;0.38;;;22.70;60.70;;;23.03;45.49;95629.94;5057888;28;20263;-39
2023/08/11 09:19:28;;;;;;;0.40;0.40;;;22.70;60.70;;;23.05;45.05;95634.25;5057612;28;20225;-39
2023/08/11 09:21:56;;;;;;;0.40;0.40;;;22.70;60.60;;;23.06;45.06;95636.66;5057782;28;20714;-39
2023/08/11 09:24:23;;;;;;;0.30;0.30;;;22.70;60.60;;;23.07;44.79;95638.28;5057751;28;20191;-39
2023/08/11 09:26:51;;;;;;;0.40;0.40;;;22.70;60.50;;;23.10;45.00;95636.97;5057671;28;20221;-39
2023/08/11 09:29:19;;;;;;;0.40;0.40;;;22.70;60.50;;;23.12;44.96;95641.00;5057511;28;20226;-39
2023/08/11 09:31:49;;;;;;;0.40;0.40;;;22.80;60.60;;;23.12;45.12;95640.16;5057885;28;20314;-39
2023/08/11 09:34:18;;;;;;;0.30;0.30;;;22.80;60.50;;;23.15;44.89;95640.47;5056828;28;20199;-39
2023/08/11 09:36:48;;;;;;;0.30;0.30;;;22.80;60.60;;;23.15;44.78;95637.78;5056583;28;20227;-39
2023/08/11 09:39:16;;;;;;;0.40;0.40;;;22.80;60.50;;;23.18;44.86;95634.66;5057316;28;20265;-39
2023/08/11 09:41:48;;;;;;;0.40;0.40;;;22.80;60.50;;;23.20;44.83;95639.75;5056835;28;20254;-39
2023/08/11 09:44:17;;;;;;;0.30;0.30;;;22.80;60.50;;;23.22;44.79;95631.47;5057440;28;20234;-39
2023/08/11 09:46:46;;;;;;;0.32;0.32;;;22.80;60.50;;;23.23;44.78;95639.25;5057326;28;20242;-39
2023/08/11 09:49:13;;;;;;;0.40;0.40;;;22.90;60.60;;;23.24;44.79;95632.84;5056222;28;20200;-39
2023/08/11 09:51:41;;;;;;;0.40;0.40;;;22.90;60.50;;;23.26;44.61;95635.25;5057106;28;20582;-40
2023/08/11 09:54:10;;;;;;;0.40;0.40;;;22.90;60.50;;;23.27;44.91;95631.53;5057489;28;20207;-39
2023/08/11 09:56:40;;;;;;;0.40;0.40;;;22.90;60.40;;;23.28;44.76;95623.22;5057708;28;20229;-39
2023/08/11 09:59:20;;;;;;;0.40;0.40;;;22.90;60.50;;;23.29;44.76;95621.34;5056134;28;20204;-39
2023/08/11 10:01:48;;;;;;;0.40;0.40;;;22.90;60.30;;;23.31;44.66;95637.97;5057046;28;20192;-39
2023/08/11 10:04:34;;;;;;;0.40;0.40;;;22.90;60.50;;;23.32;44.65;95632.34;5056999;28;20189;-39
2023/08/11 10:07:10;;;;;;;0.40;0.40;;;22.90;60.30;;;23.33;44.51;95628.63;5057250;28;20196;-39
2023/08/11 10:09:38;;;;;;;0.30;0.30;;;23.00;60.20;;;23.36;44.50;95626.50;5056838;28;20190;-39
2023/08/11 10:12:07;;;;;;;0.40;0.40;;;23.00;60.40;;;23.38;44.47;95629.75;5056114;28;20281;-39
2023/08/11 10:14:36;;;;;;;0.30;0.30;;;23.00;60.40;;;23.38;44.56;95630.53;5055978;28;20196;-39
2023/08/11 10:17:04;;;;;;;0.40;0.40;;;23.00;60.20;;;23.41;44.54;95626.53;5056778;28;20188;-39
2023/08/11 10:19:32;;;;;;;0.40;0.40;;;23.00;60.20;;;23.43;44.52;95624.41;5055588;28;20216;-39
2023/08/11 10:21:59;;;;;;;0.40;0.40;;;23.00;60.20;;;23.41;44.66;95621.19;5056936;28;20533;-39
2023/08/11 10:24:27;;;;;;;0.40;0.40;;;23.00;60.20;;;23.46;44.37;95627.41;5056048;28;20601;-40
2023/08/11 10:26:54;;;;;;;0.40;0.40;;;23.10;60.20;;;23.49;44.42;95624.19;5057118;28;20226;-39